Time;durP1;ratioP1;P1;durP2;ratioP2;P2;SDS_P1;SDS_P2;PMS_P1;PMS_P2;Temp;Humidity;BMP_temperature;BMP_pressure;BME280_temperature;BME280_humidity;BME280_pressure;Samples;Min_cycle;Max_cycle;Signal;HPM_P1;HPM_P2
2022/03/08 00:01:04;;;;;;;;;;;23.80;40.50;;;;;;1541696;76;803;-70
2022/03/08 00:03:06;;;;;;;;;;;23.80;40.50;;;;;;1550094;76;736;-70
2022/03/08 00:05:08;;;;;;;;;;;24.00;40.60;;;;;;1545892;76;718;-68
2022/03/08 00:07:10;;;;;;;;;;;23.90;40.60;;;;;;1549701;76;821;-69
2022/03/08 00:09:11;;;;;;;;;;;23.80;40.70;;;;;;1541405;76;1138;-69
2022/03/08 00:11:16;;;;;;;;;;;23.80;40.60;;;;;;1545786;76;1921;-69
2022/03/08 00:13:17;;;;;;;;;;;23.80;40.60;;;;;;1545244;76;1782;-71
2022/03/08 00:15:21;;;;;;;;;;;23.80;40.60;;;;;;1541359;76;808;-69
2022/03/08 00:17:23;;;;;;;;;;;23.90;40.70;;;;;;1544642;76;1826;-69
2022/03/08 00:19:25;;;;;;;;;;;23.90;40.70;;;;;;1541874;77;1161;-69
2022/03/08 00:21:26;;;;;;;;;;;23.80;40.70;;;;;;1550407;76;714;-70
2022/03/08 00:23:28;;;;;;;;;;;23.90;40.80;;;;;;1553626;76;735;-69
2022/03/08 00:25:30;;;;;;;;;;;23.80;40.70;;;;;;1542314;76;755;-70
2022/03/08 00:27:32;;;;;;;;;;;23.90;40.80;;;;;;1541787;77;643;-69
2022/03/08 00:29:34;;;;;;;;;;;23.90;40.80;;;;;;1536864;77;1181;-72
2022/03/08 00:31:36;;;;;;;;;;;23.80;40.70;;;;;;1510841;79;1938;-70
2022/03/08 00:33:38;;;;;;;;;;;23.80;40.70;;;;;;1534511;76;776;-69
2022/03/08 00:35:39;;;;;;;;;;;23.80;40.80;;;;;;1536371;77;734;-70
2022/03/08 00:37:41;;;;;;;;;;;23.80;40.70;;;;;;1536471;77;724;-69
2022/03/08 00:39:43;;;;;;;;;;;23.90;40.90;;;;;;1536392;77;1162;-71
2022/03/08 00:41:45;;;;;;;;;;;23.90;40.90;;;;;;1536362;76;668;-71
2022/03/08 00:43:47;;;;;;;;;;;23.90;41.00;;;;;;1515866;78;803;-71
2022/03/08 00:45:49;;;;;;;;;;;23.80;40.90;;;;;;1515891;78;718;-73
2022/03/08 00:47:51;;;;;;;;;;;24.00;41.00;;;;;;1515849;78;805;-74
2022/03/08 00:49:53;;;;;;;;;;;23.90;40.90;;;;;;1516058;78;1170;-71
2022/03/08 00:51:55;;;;;;;;;;;23.90;41.00;;;;;;1521881;76;1932;-71
2022/03/08 00:53:57;;;;;;;;;;;23.90;41.00;;;;;;1552768;76;794;-70
2022/03/08 00:55:58;;;;;;;;;;;23.80;40.90;;;;;;1543781;76;696;-71
2022/03/08 00:58:00;;;;;;;;;;;23.90;41.00;;;;;;1541718;77;655;-71
2022/03/08 01:00:04;;;;;;;;;;;23.90;40.90;;;;;;1541817;77;1146;-70
2022/03/08 01:02:06;;;;;;;;;;;24.00;40.90;;;;;;1542494;76;767;-71
2022/03/08 01:04:08;;;;;;;;;;;23.90;41.00;;;;;;1553735;76;655;-70
2022/03/08 01:06:11;;;;;;;;;;;23.90;41.00;;;;;;1551772;76;733;-71
2022/03/08 01:08:14;;;;;;;;;;;23.90;41.00;;;;;;1543081;77;960;-71
2022/03/08 01:10:17;;;;;;;;;;;23.90;41.10;;;;;;1542135;77;663;-70
2022/03/08 01:12:19;;;;;;;;;;;24.00;41.00;;;;;;1542010;76;1909;-71
2022/03/08 01:14:21;;;;;;;;;;;23.90;41.00;;;;;;1541599;77;753;-71
2022/03/08 01:16:23;;;;;;;;;;;23.90;41.00;;;;;;1541733;77;762;-71
2022/03/08 01:18:25;;;;;;;;;;;23.90;41.00;;;;;;1541861;77;1134;-73
2022/03/08 01:20:27;;;;;;;;;;;23.90;41.00;;;;;;1541928;76;746;-71
2022/03/08 01:22:29;;;;;;;;;;;23.90;41.10;;;;;;1538744;76;762;-71
2022/03/08 01:24:31;;;;;;;;;;;24.00;41.10;;;;;;1543441;76;837;-70
2022/03/08 01:26:32;;;;;;;;;;;24.00;41.10;;;;;;1554264;76;735;-69
2022/03/08 01:28:34;;;;;;;;;;;23.90;41.00;;;;;;1554206;76;1141;-71
2022/03/08 01:30:37;;;;;;;;;;;23.90;41.00;;;;;;1547967;76;710;-71
2022/03/08 01:32:38;;;;;;;;;;;24.00;41.00;;;;;;1545046;77;1929;-70
2022/03/08 01:34:40;;;;;;;;;;;23.90;41.10;;;;;;1520049;78;864;-72
2022/03/08 01:36:43;;;;;;;;;;;23.90;41.10;;;;;;1554619;76;733;-73
2022/03/08 01:38:45;;;;;;;;;;;23.90;41.00;;;;;;1554445;76;1142;-70
2022/03/08 01:40:46;;;;;;;;;;;23.90;41.00;;;;;;1554525;76;766;-69
2022/03/08 01:42:49;;;;;;;;;;;23.90;41.10;;;;;;1553637;76;728;-70
2022/03/08 01:44:51;;;;;;;;;;;24.00;41.10;;;;;;1554457;76;711;-73
2022/03/08 01:46:52;;;;;;;;;;;24.00;41.00;;;;;;1554289;76;725;-71
2022/03/08 01:48:54;;;;;;;;;;;24.00;41.00;;;;;;1554197;76;1183;-70
2022/03/08 01:50:56;;;;;;;;;;;23.90;41.00;;;;;;1553631;76;712;-70
2022/03/08 01:52:58;;;;;;;;;;;23.90;41.00;;;;;;1541477;76;1925;-71
2022/03/08 01:55:00;;;;;;;;;;;23.90;41.00;;;;;;1541975;76;801;-70
2022/03/08 01:57:02;;;;;;;;;;;24.00;41.10;;;;;;1541823;77;681;-70
2022/03/08 01:59:04;;;;;;;;;;;24.00;41.00;;;;;;1541520;77;1205;-70
2022/03/08 02:01:06;;;;;;;;;;;23.90;41.00;;;;;;1542023;77;547;-71
2022/03/08 02:03:08;;;;;;;;;;;23.90;41.10;;;;;;1542060;76;729;-71
2022/03/08 02:05:10;;;;;;;;;;;23.90;41.10;;;;;;1542344;77;680;-73
2022/03/08 02:07:12;;;;;;;;;;;23.90;41.10;;;;;;1542302;77;835;-74
2022/03/08 02:09:14;;;;;;;;;;;23.90;41.10;;;;;;1542175;77;1118;-72
2022/03/08 02:11:16;;;;;;;;;;;23.90;41.20;;;;;;1542050;77;809;-68
2022/03/08 02:13:17;;;;;;;;;;;23.90;41.20;;;;;;1552701;76;1922;-73
2022/03/08 02:15:21;;;;;;;;;;;23.80;41.10;;;;;;1554322;76;777;-74
2022/03/08 02:17:22;;;;;;;;;;;23.80;41.20;;;;;;1554277;76;762;-73
2022/03/08 02:19:24;;;;;;;;;;;23.80;41.20;;;;;;1553974;76;1113;-72
2022/03/08 02:21:26;;;;;;;;;;;23.80;41.20;;;;;;1553024;76;731;-71
2022/03/08 02:23:28;;;;;;;;;;;23.80;41.20;;;;;;1546302;76;697;-71
2022/03/08 02:25:30;;;;;;;;;;;23.90;41.30;;;;;;1552805;76;792;-72
2022/03/08 02:27:32;;;;;;;;;;;23.80;41.20;;;;;;1550141;76;741;-72
2022/03/08 02:29:34;;;;;;;;;;;23.80;41.30;;;;;;1542267;77;1134;-72
2022/03/08 02:31:35;;;;;;;;;;;23.80;41.30;;;;;;1543022;76;1938;-73
2022/03/08 02:33:38;;;;;;;;;;;23.80;41.40;;;;;;1553974;76;705;-72
2022/03/08 02:35:40;;;;;;;;;;;23.70;41.30;;;;;;1553669;76;704;-73
2022/03/08 02:37:47;;;;;;;;;;;23.90;41.40;;;;;;1553565;76;798;-70
2022/03/08 02:39:49;;;;;;;;;;;23.80;41.30;;;;;;1551869;76;1103;-72
2022/03/08 02:41:51;;;;;;;;;;;23.80;41.30;;;;;;1541988;77;1067;-71
2022/03/08 02:43:53;;;;;;;;;;;23.80;41.40;;;;;;1541525;77;763;-71
2022/03/08 02:45:55;;;;;;;;;;;23.80;41.40;;;;;;1541418;77;710;-72
2022/03/08 02:47:57;;;;;;;;;;;23.80;41.50;;;;;;1545902;76;717;-72
2022/03/08 02:49:59;;;;;;;;;;;23.90;41.50;;;;;;1545061;76;1109;-72
2022/03/08 02:52:01;;;;;;;;;;;23.80;41.30;;;;;;1541613;77;1958;-73
2022/03/08 02:54:02;;;;;;;;;;;23.90;41.50;;;;;;1541913;76;760;-71
2022/03/08 02:56:04;;;;;;;;;;;23.90;41.50;;;;;;1541638;77;767;-71
2022/03/08 02:58:06;;;;;;;;;;;23.80;41.40;;;;;;1541868;77;819;-71
2022/03/08 03:00:09;;;;;;;;;;;23.80;41.40;;;;;;1541949;77;1091;-71
2022/03/08 03:02:11;;;;;;;;;;;23.90;41.50;;;;;;1541865;77;837;-70
2022/03/08 03:04:13;;;;;;;;;;;23.80;41.40;;;;;;1536903;76;740;-71
2022/03/08 03:06:14;;;;;;;;;;;23.90;41.50;;;;;;1536535;77;714;-71
2022/03/08 03:08:16;;;;;;;;;;;23.90;41.50;;;;;;1536511;77;1158;-71
2022/03/08 03:10:19;;;;;;;;;;;23.80;41.40;;;;;;1536591;77;698;-71
2022/03/08 03:12:20;;;;;;;;;;;23.80;41.40;;;;;;1543264;76;1938;-72
2022/03/08 03:14:22;;;;;;;;;;;23.80;41.50;;;;;;1553944;76;757;-72
2022/03/08 03:16:24;;;;;;;;;;;23.80;41.50;;;;;;1553840;76;773;-73
2022/03/08 03:18:26;;;;;;;;;;;23.80;41.50;;;;;;1553960;76;1314;-71
2022/03/08 03:20:28;;;;;;;;;;;23.70;41.50;;;;;;1553930;76;779;-71
2022/03/08 03:22:30;;;;;;;;;;;23.90;41.60;;;;;;1546489;76;741;-70
2022/03/08 03:24:32;;;;;;;;;;;23.90;41.60;;;;;;1544719;76;728;-71
2022/03/08 03:26:34;;;;;;;;;;;23.80;41.60;;;;;;1554203;76;721;-71
2022/03/08 03:28:36;;;;;;;;;;;23.80;41.50;;;;;;1554441;76;1143;-71
2022/03/08 03:30:38;;;;;;;;;;;23.80;41.50;;;;;;1554667;76;723;-73
2022/03/08 03:32:40;;;;;;;;;;;23.80;41.60;;;;;;1554516;76;1987;-71
2022/03/08 03:34:41;;;;;;;;;;;23.80;41.50;;;;;;1553688;76;751;-71
2022/03/08 03:36:43;;;;;;;;;;;23.90;41.50;;;;;;1545920;76;826;-74
2022/03/08 03:38:45;;;;;;;;;;;24.00;41.50;;;;;;1539676;77;1140;-71
2022/03/08 03:40:47;;;;;;;;;;;24.00;41.50;;;;;;1541650;77;780;-71
2022/03/08 03:42:49;;;;;;;;;;;24.00;41.50;;;;;;1541619;77;746;-69
2022/03/08 03:44:51;;;;;;;;;;;24.00;41.50;;;;;;1541726;77;780;-71
2022/03/08 03:46:53;;;;;;;;;;;24.10;41.50;;;;;;1541623;76;623;-72
2022/03/08 03:48:55;;;;;;;;;;;24.00;41.40;;;;;;1541790;77;1179;-71
2022/03/08 03:50:56;;;;;;;;;;;24.10;41.50;;;;;;1541818;77;628;-71
2022/03/08 03:52:58;;;;;;;;;;;24.00;41.40;;;;;;1541571;77;1924;-73
2022/03/08 03:55:01;;;;;;;;;;;24.00;41.40;;;;;;1541351;76;765;-70
2022/03/08 03:57:03;;;;;;;;;;;24.10;41.60;;;;;;1541129;76;799;-67
2022/03/08 03:59:05;;;;;;;;;;;24.10;41.80;;;;;;1540482;76;1158;-73
2022/03/08 04:01:07;;;;;;;;;;;24.00;41.70;;;;;;1542401;76;747;-69
2022/03/08 04:03:09;;;;;;;;;;;24.20;41.70;;;;;;1542917;76;786;-69
2022/03/08 04:05:10;;;;;;;;;;;24.20;41.60;;;;;;1549179;76;735;-69
2022/03/08 04:07:13;;;;;;;;;;;24.20;41.50;;;;;;1541390;77;799;-69
2022/03/08 04:09:14;;;;;;;;;;;24.20;41.40;;;;;;1546871;76;1144;-70
2022/03/08 04:11:16;;;;;;;;;;;24.20;41.40;;;;;;1537549;76;762;-70
2022/03/08 04:13:18;;;;;;;;;;;24.20;41.40;;;;;;1540805;76;1957;-69
2022/03/08 04:15:20;;;;;;;;;;;24.20;41.40;;;;;;1549829;76;743;-69
2022/03/08 04:17:22;;;;;;;;;;;24.20;41.40;;;;;;1544501;76;716;-72
2022/03/08 04:19:24;;;;;;;;;;;24.20;41.30;;;;;;1541652;76;1135;-71
2022/03/08 04:21:26;;;;;;;;;;;24.10;41.40;;;;;;1541212;76;813;-69
2022/03/08 04:23:27;;;;;;;;;;;24.20;41.50;;;;;;1542229;76;722;-71
2022/03/08 04:25:29;;;;;;;;;;;24.20;41.60;;;;;;1541751;76;741;-69
2022/03/08 04:27:31;;;;;;;;;;;24.10;41.50;;;;;;1541201;76;757;-70
2022/03/08 04:29:33;;;;;;;;;;;24.20;41.50;;;;;;1541314;76;1144;-70
2022/03/08 04:31:35;;;;;;;;;;;24.10;41.60;;;;;;1539913;76;789;-66
2022/03/08 04:33:37;;;;;;;;;;;24.20;41.70;;;;;;1516237;77;1937;-70
2022/03/08 04:35:39;;;;;;;;;;;24.20;41.80;;;;;;1543265;76;759;-71
2022/03/08 04:37:41;;;;;;;;;;;24.20;41.80;;;;;;1540332;76;736;-68
2022/03/08 04:39:43;;;;;;;;;;;24.20;41.80;;;;;;1541000;76;1145;-69
2022/03/08 04:41:45;;;;;;;;;;;24.20;41.80;;;;;;1541137;76;744;-68
2022/03/08 04:43:46;;;;;;;;;;;24.20;41.90;;;;;;1540865;76;817;-69
2022/03/08 04:45:48;;;;;;;;;;;24.20;41.90;;;;;;1541035;76;775;-70
2022/03/08 04:47:53;;;;;;;;;;;24.10;41.80;;;;;;1541376;76;782;-69
2022/03/08 04:49:55;;;;;;;;;;;24.20;41.90;;;;;;1546077;76;1147;-69
2022/03/08 04:51:57;;;;;;;;;;;24.10;41.80;;;;;;1541474;77;769;-69
2022/03/08 04:53:59;;;;;;;;;;;24.20;41.90;;;;;;1542067;76;1937;-69
2022/03/08 04:56:01;;;;;;;;;;;24.20;41.90;;;;;;1541179;76;785;-69
2022/03/08 04:58:03;;;;;;;;;;;24.10;41.90;;;;;;1541268;76;790;-69
2022/03/08 05:00:05;;;;;;;;;;;24.10;41.80;;;;;;1541119;76;1125;-71
2022/03/08 05:02:07;;;;;;;;;;;24.20;41.80;;;;;;1541793;76;785;-68
2022/03/08 05:04:09;;;;;;;;;;;24.20;41.90;;;;;;1541139;76;747;-70
2022/03/08 05:06:11;;;;;;;;;;;24.20;41.80;;;;;;1541447;76;738;-69
2022/03/08 05:08:14;;;;;;;;;;;24.10;41.80;;;;;;1536790;76;807;-69
2022/03/08 05:10:16;;;;;;;;;;;24.20;41.80;;;;;;1536930;76;728;-69
2022/03/08 05:12:18;;;;;;;;;;;24.20;41.80;;;;;;1541108;76;906;-70
2022/03/08 05:14:20;;;;;;;;;;;24.20;41.80;;;;;;1541476;76;1936;-71
2022/03/08 05:16:22;;;;;;;;;;;24.20;41.80;;;;;;1541454;77;794;-72
2022/03/08 05:18:23;;;;;;;;;;;24.10;41.80;;;;;;1541436;77;1142;-70
2022/03/08 05:20:25;;;;;;;;;;;24.10;41.80;;;;;;1541724;77;811;-70
2022/03/08 05:22:27;;;;;;;;;;;24.20;41.80;;;;;;1531142;76;714;-70
2022/03/08 05:24:29;;;;;;;;;;;24.20;41.80;;;;;;1522442;76;676;-70
2022/03/08 05:26:31;;;;;;;;;;;24.20;41.70;;;;;;1536361;77;808;-69
2022/03/08 05:28:33;;;;;;;;;;;24.10;41.70;;;;;;1536156;77;1177;-71
2022/03/08 05:30:35;;;;;;;;;;;24.20;41.60;;;;;;1537706;76;716;-71
2022/03/08 05:32:37;;;;;;;;;;;24.20;41.60;;;;;;1542593;77;738;-70
2022/03/08 05:34:39;;;;;;;;;;;24.20;41.60;;;;;;1549287;76;1929;-70
2022/03/08 05:36:40;;;;;;;;;;;24.20;41.70;;;;;;1542408;76;771;-70
2022/03/08 05:38:42;;;;;;;;;;;24.20;41.70;;;;;;1541120;76;1100;-70
2022/03/08 05:40:44;;;;;;;;;;;24.20;41.60;;;;;;1541288;76;823;-72
2022/03/08 05:42:46;;;;;;;;;;;24.20;41.50;;;;;;1541057;76;721;-71
2022/03/08 05:44:48;;;;;;;;;;;24.20;41.50;;;;;;1540878;76;794;-70
2022/03/08 05:46:50;;;;;;;;;;;24.30;41.60;;;;;;1544418;76;778;-70
2022/03/08 05:48:52;;;;;;;;;;;24.20;41.40;;;;;;1541359;76;1185;-71
2022/03/08 05:50:54;;;;;;;;;;;24.30;41.60;;;;;;1546245;76;812;-71
2022/03/08 05:52:56;;;;;;;;;;;24.30;41.60;;;;;;1541429;76;1937;-64
2022/03/08 05:54:58;;;;;;;;;;;24.30;41.70;;;;;;1546940;76;726;-63
2022/03/08 05:56:59;;;;;;;;;;;24.30;41.50;;;;;;1541358;77;778;-64
2022/03/08 05:59:01;;;;;;;;;;;24.50;41.10;;;;;;1541407;77;1206;-65
2022/03/08 06:01:03;;;;;;;;;;;24.50;41.00;;;;;;1535371;76;888;-65
2022/03/08 06:03:05;;;;;;;;;;;24.50;40.80;;;;;;1546922;76;737;-64
2022/03/08 06:05:07;;;;;;;;;;;24.50;40.70;;;;;;1541453;77;671;-65
2022/03/08 06:07:09;;;;;;;;;;;24.60;40.80;;;;;;1541201;77;793;-64
2022/03/08 06:09:11;;;;;;;;;;;24.50;40.70;;;;;;1555097;76;1172;-63
2022/03/08 06:11:13;;;;;;;;;;;24.50;40.60;;;;;;1563420;76;730;-66
2022/03/08 06:13:15;;;;;;;;;;;24.50;40.70;;;;;;1552559;76;1936;-64
2022/03/08 06:15:17;;;;;;;;;;;24.50;40.60;;;;;;1553443;76;695;-64
2022/03/08 06:17:19;;;;;;;;;;;24.60;40.60;;;;;;1553151;76;719;-64
2022/03/08 06:19:20;;;;;;;;;;;24.60;40.50;;;;;;1553487;76;1182;-63
2022/03/08 06:21:23;;;;;;;;;;;24.60;40.50;;;;;;1546433;76;720;-67
2022/03/08 06:23:25;;;;;;;;;;;24.50;40.40;;;;;;1541033;76;711;-66
2022/03/08 06:25:27;;;;;;;;;;;24.50;40.30;;;;;;1541624;76;753;-63
2022/03/08 06:27:28;;;;;;;;;;;24.60;40.30;;;;;;1541283;77;568;-63
2022/03/08 06:29:30;;;;;;;;;;;24.60;40.30;;;;;;1541177;76;1138;-62
2022/03/08 06:31:32;;;;;;;;;;;24.60;40.20;;;;;;1541901;76;793;-65
2022/03/08 06:33:34;;;;;;;;;;;24.60;40.20;;;;;;1538261;76;1948;-63
2022/03/08 06:35:36;;;;;;;;;;;24.60;40.10;;;;;;1541152;77;808;-63
2022/03/08 06:37:38;;;;;;;;;;;24.60;40.10;;;;;;1541333;77;711;-63
2022/03/08 06:39:40;;;;;;;;;;;24.50;40.10;;;;;;1541207;77;1141;-63
2022/03/08 06:41:42;;;;;;;;;;;24.50;40.00;;;;;;1541335;77;713;-63
2022/03/08 06:43:44;;;;;;;;;;;24.50;40.00;;;;;;1551518;76;735;-64
2022/03/08 06:45:46;;;;;;;;;;;24.50;40.10;;;;;;1546056;76;752;-63
2022/03/08 06:47:47;;;;;;;;;;;24.40;40.00;;;;;;1541359;77;797;-64
2022/03/08 06:49:49;;;;;;;;;;;24.40;40.00;;;;;;1541361;77;1120;-68
2022/03/08 06:51:51;;;;;;;;;;;24.30;39.90;;;;;;1551977;76;671;-62
2022/03/08 06:53:53;;;;;;;;;;;24.40;40.00;;;;;;1551850;76;1942;-62
2022/03/08 06:55:55;;;;;;;;;;;24.30;40.00;;;;;;1540889;76;725;-64
2022/03/08 06:57:57;;;;;;;;;;;24.30;39.90;;;;;;1541169;76;805;-63
2022/03/08 06:59:59;;;;;;;;;;;24.30;39.90;;;;;;1541399;76;1106;-64
2022/03/08 07:02:01;;;;;;;;;;;24.30;39.80;;;;;;1541050;76;790;-63
2022/03/08 07:04:03;;;;;;;;;;;24.30;39.90;;;;;;1540974;76;725;-64
2022/03/08 07:06:05;;;;;;;;;;;24.20;39.70;;;;;;1541192;76;816;-65
2022/03/08 07:08:07;;;;;;;;;;;24.30;39.80;;;;;;1543495;76;719;-64
2022/03/08 07:10:09;;;;;;;;;;;24.30;39.80;;;;;;1546884;76;1095;-64
2022/03/08 07:12:11;;;;;;;;;;;24.30;39.80;;;;;;1543302;76;815;-64
2022/03/08 07:14:15;;;;;;;;;;;24.30;39.70;;;;;;1553320;76;1938;-66
2022/03/08 07:16:16;;;;;;;;;;;24.20;39.60;;;;;;1547306;76;1659;-64
2022/03/08 07:18:18;;;;;;;;;;;24.20;39.60;;;;;;1541140;76;1150;-64
2022/03/08 07:20:20;;;;;;;;;;;24.20;39.60;;;;;;1541349;76;799;-63
2022/03/08 07:22:22;;;;;;;;;;;24.20;39.60;;;;;;1537415;76;793;-63
2022/03/08 07:24:24;;;;;;;;;;;24.20;39.60;;;;;;1545003;76;789;-64
2022/03/08 07:26:26;;;;;;;;;;;24.20;39.60;;;;;;1542675;76;743;-64
2022/03/08 07:28:28;;;;;;;;;;;24.20;39.50;;;;;;1541173;77;1162;-63
2022/03/08 07:30:29;;;;;;;;;;;24.20;39.60;;;;;;1541308;77;797;-66
2022/03/08 07:32:31;;;;;;;;;;;24.10;39.50;;;;;;1544440;76;782;-64
2022/03/08 07:34:33;;;;;;;;;;;24.10;39.00;;;;;;1553218;76;1924;-64
2022/03/08 07:36:37;;;;;;;;;;;24.10;38.10;;;;;;1547106;76;698;-63
2022/03/08 07:38:39;;;;;;;;;;;24.00;37.80;;;;;;1541469;76;1144;-64
2022/03/08 07:40:40;;;;;;;;;;;23.90;37.30;;;;;;1542102;76;789;-63
2022/03/08 07:42:42;;;;;;;;;;;23.90;36.70;;;;;;1558489;76;797;-64
2022/03/08 07:44:44;;;;;;;;;;;23.80;36.40;;;;;;1558475;76;745;-64
2022/03/08 07:46:46;;;;;;;;;;;23.80;36.00;;;;;;1545045;76;759;-64
2022/03/08 07:48:48;;;;;;;;;;;23.70;35.60;;;;;;1540403;76;1161;-65
2022/03/08 07:50:50;;;;;;;;;;;23.70;35.50;;;;;;1550186;76;738;-64
2022/03/08 07:52:52;;;;;;;;;;;23.70;35.30;;;;;;1546828;76;781;-64
2022/03/08 07:54:54;;;;;;;;;;;23.60;35.00;;;;;;1545762;76;1937;-63
2022/03/08 07:56:56;;;;;;;;;;;23.60;34.90;;;;;;1552577;76;728;-64
2022/03/08 07:58:57;;;;;;;;;;;23.60;34.80;;;;;;1548912;76;1181;-63
2022/03/08 08:00:59;;;;;;;;;;;23.60;34.70;;;;;;1551202;76;740;-64
2022/03/08 08:03:03;;;;;;;;;;;23.60;34.40;;;;;;1553642;76;786;-63
2022/03/08 08:05:05;;;;;;;;;;;23.40;33.70;;;;;;1552568;76;1930;-64
2022/03/08 08:07:07;;;;;;;;;;;23.50;33.50;;;;;;1549332;76;945;-64
2022/03/08 08:09:09;;;;;;;;;;;23.40;33.60;;;;;;1542030;76;1135;-63
2022/03/08 08:11:10;;;;;;;;;;;23.30;33.40;;;;;;1551281;76;791;-63
2022/03/08 08:13:12;;;;;;;;;;;23.30;33.40;;;;;;1547802;76;792;-64
2022/03/08 08:15:14;;;;;;;;;;;23.30;33.50;;;;;;1550158;76;1935;-64
2022/03/08 08:17:18;;;;;;;;;;;23.30;33.50;;;;;;1546402;76;757;-64
2022/03/08 08:19:19;;;;;;;;;;;23.20;33.30;;;;;;1546941;76;1170;-64
2022/03/08 08:21:22;;;;;;;;;;;23.20;33.30;;;;;;1542648;76;797;-63
2022/03/08 08:23:24;;;;;;;;;;;23.20;32.80;;;;;;1539142;76;732;-63
2022/03/08 08:25:26;;;;;;;;;;;23.20;33.10;;;;;;1541475;76;905;-64
2022/03/08 08:27:28;;;;;;;;;;;23.20;32.60;;;;;;1549986;76;739;-64
2022/03/08 08:29:30;;;;;;;;;;;23.20;32.30;;;;;;1550640;76;1144;-64
2022/03/08 08:31:32;;;;;;;;;;;23.20;32.40;;;;;;1554401;76;723;-64
2022/03/08 08:33:34;;;;;;;;;;;23.10;32.20;;;;;;1555128;76;726;-63
2022/03/08 08:35:36;;;;;;;;;;;23.00;31.80;;;;;;1547554;76;1938;-64
2022/03/08 08:37:38;;;;;;;;;;;23.10;32.10;;;;;;1541314;76;857;-64
2022/03/08 08:39:40;;;;;;;;;;;23.00;32.10;;;;;;1531186;76;1135;-62
2022/03/08 08:41:42;;;;;;;;;;;23.10;32.10;;;;;;1551143;76;744;-64
2022/03/08 08:43:44;;;;;;;;;;;23.00;32.10;;;;;;1544533;76;802;-64
2022/03/08 08:45:51;;;;;;;;;;;23.10;32.40;;;;;;1549783;76;785;-64
2022/03/08 08:47:50;;;;;;;;;;;23.00;32.20;;;;;;1540794;76;1648;-64
2022/03/08 08:49:51;;;;;;;;;;;23.10;32.10;;;;;;1545894;76;1135;-64
2022/03/08 08:51:54;;;;;;;;;;;23.00;32.00;;;;;;1542673;76;666;-64
2022/03/08 08:53:55;;;;;;;;;;;23.10;31.60;;;;;;1542183;76;1921;-64
2022/03/08 08:55:57;;;;;;;;;;;23.00;31.60;;;;;;1544971;76;692;-63
2022/03/08 08:57:59;;;;;;;;;;;23.00;31.80;;;;;;1552765;76;734;-63
2022/03/08 09:00:01;;;;;;;;;;;23.00;32.10;;;;;;1550418;76;1141;-64
2022/03/08 09:02:03;;;;;;;;;;;23.00;32.30;;;;;;1542948;76;772;-63
2022/03/08 09:04:05;;;;;;;;;;;23.20;32.90;;;;;;1547346;76;717;-63
2022/03/08 09:06:07;;;;;;;;;;;23.00;33.20;;;;;;1542694;76;770;-62
2022/03/08 09:08:09;;;;;;;;;;;23.10;33.30;;;;;;1542607;76;774;-63
2022/03/08 09:10:11;;;;;;;;;;;23.10;33.40;;;;;;1541833;76;1090;-64
2022/03/08 09:12:13;;;;;;;;;;;23.10;33.40;;;;;;1541483;76;763;-63
2022/03/08 09:14:15;;;;;;;;;;;23.20;33.50;;;;;;1549615;76;1919;-62
2022/03/08 09:16:17;;;;;;;;;;;23.10;33.30;;;;;;1546088;76;760;-64
2022/03/08 09:18:19;;;;;;;;;;;23.10;32.90;;;;;;1542082;76;1166;-64
2022/03/08 09:20:22;;;;;;;;;;;23.00;32.70;;;;;;1540691;76;721;-66
2022/03/08 09:22:24;;;;;;;;;;;23.00;32.60;;;;;;1540900;76;714;-63
2022/03/08 09:24:26;;;;;;;;;;;23.00;32.90;;;;;;1542418;76;728;-64
2022/03/08 09:26:28;;;;;;;;;;;23.00;32.90;;;;;;1541710;76;721;-64
2022/03/08 09:28:30;;;;;;;;;;;23.00;32.90;;;;;;1542369;76;1158;-65
2022/03/08 09:30:32;;;;;;;;;;;23.00;33.00;;;;;;1547647;76;810;-63
2022/03/08 09:32:34;;;;;;;;;;;23.00;33.00;;;;;;1550580;76;764;-63
2022/03/08 09:34:38;;;;;;;;;;;23.00;32.80;;;;;;1546679;76;1931;-63
2022/03/08 09:36:39;;;;;;;;;;;23.00;32.90;;;;;;1550880;76;1657;-62
2022/03/08 09:38:41;;;;;;;;;;;23.00;32.60;;;;;;1542151;76;1157;-63
2022/03/08 09:40:43;;;;;;;;;;;23.00;32.60;;;;;;1543019;76;699;-62
2022/03/08 09:42:45;;;;;;;;;;;23.00;32.40;;;;;;1553885;76;779;-64
2022/03/08 09:44:48;;;;;;;;;;;23.00;32.10;;;;;;1544763;76;708;-63
2022/03/08 09:46:50;;;;;;;;;;;23.00;32.10;;;;;;1549726;76;722;-65
2022/03/08 09:48:52;;;;;;;;;;;23.00;31.70;;;;;;1556131;76;1157;-63
2022/03/08 09:50:54;;;;;;;;;;;23.00;31.70;;;;;;1553098;76;746;-63
2022/03/08 09:52:59;;;;;;;;;;;23.00;31.50;;;;;;1556098;76;741;-62
2022/03/08 09:55:01;;;;;;;;;;;22.90;31.40;;;;;;1555300;76;1934;-63
2022/03/08 09:57:13;;;;;;;;;;;22.90;31.60;;;;;;1552220;76;755;-64
2022/03/08 09:59:15;;;;;;;;;;;22.90;32.50;;;;;;1547305;76;1192;-64
2022/03/08 10:01:17;;;;;;;;;;;23.00;32.80;;;;;;1547365;76;808;-65
2022/03/08 10:03:20;;;;;;;;;;;23.20;33.10;;;;;;1551260;76;811;-65
2022/03/08 10:05:22;;;;;;;;;;;23.20;33.10;;;;;;1508649;78;827;-66
2022/03/08 10:07:24;;;;;;;;;;;23.20;33.30;;;;;;1544517;76;871;-66
2022/03/08 10:09:26;;;;;;;;;;;23.30;33.50;;;;;;1544797;76;1195;-66
2022/03/08 10:11:28;;;;;;;;;;;23.30;33.60;;;;;;1547998;76;696;-65
2022/03/08 10:13:32;;;;;;;;;;;23.50;33.90;;;;;;1509158;78;869;-64
2022/03/08 10:15:34;;;;;;;;;;;23.40;33.90;;;;;;1540995;76;1909;-65
2022/03/08 10:17:37;;;;;;;;;;;23.50;34.20;;;;;;1543718;76;643;-67
2022/03/08 10:19:48;;;;;;;;;;;23.50;34.40;;;;;;1548534;76;1146;-65
2022/03/08 10:21:55;;;;;;;;;;;23.50;34.50;;;;;;1545118;76;777;-64
2022/03/08 10:23:57;;;;;;;;;;;23.50;34.60;;;;;;1551899;76;733;-64
2022/03/08 10:26:04;;;;;;;;;;;23.50;34.80;;;;;;1548190;76;741;-66
2022/03/08 10:28:06;;;;;;;;;;;23.60;34.80;;;;;;1544498;76;717;-67
2022/03/08 10:30:12;;;;;;;;;;;23.60;35.00;;;;;;1561770;76;1096;-64
2022/03/08 10:32:16;;;;;;;;;;;23.60;35.00;;;;;;1549469;76;1542;-67
2022/03/08 10:34:17;;;;;;;;;;;23.70;35.10;;;;;;1552729;76;1615;-66
2022/03/08 10:36:26;;;;;;;;;;;23.70;35.10;;;;;;1561197;76;1920;-65
2022/03/08 10:38:24;;;;;;;;;;;23.70;35.10;;;;;;1550528;76;1483;-65
2022/03/08 10:40:33;;;;;;;;;;;23.70;35.20;;;;;;1554174;76;886;-65
2022/03/08 10:42:36;;;;;;;;;;;23.90;35.20;;;;;;1556100;76;739;-66
2022/03/08 10:44:39;;;;;;;;;;;23.80;35.20;;;;;;1557237;76;1837;-66
2022/03/08 10:46:41;;;;;;;;;;;23.80;35.20;;;;;;1557420;76;840;-65
2022/03/08 10:48:43;;;;;;;;;;;23.90;35.20;;;;;;1561663;76;1098;-67
2022/03/08 10:50:46;;;;;;;;;;;23.90;35.20;;;;;;1558170;76;770;-65
2022/03/08 10:52:49;;;;;;;;;;;23.90;35.10;;;;;;1546149;76;707;-65
2022/03/08 10:54:50;;;;;;;;;;;24.00;35.10;;;;;;1560568;76;1916;-65
2022/03/08 10:56:52;;;;;;;;;;;24.00;35.10;;;;;;1557356;76;723;-65
2022/03/08 10:58:54;;;;;;;;;;;24.10;35.20;;;;;;1545397;76;1231;-64
2022/03/08 11:00:58;;;;;;;;;;;24.10;35.10;;;;;;1541233;77;787;-65
2022/03/08 11:03:01;;;;;;;;;;;24.20;35.10;;;;;;1541135;77;705;-65
2022/03/08 11:05:07;;;;;;;;;;;24.20;35.00;;;;;;1552096;76;842;-66
2022/03/08 11:07:08;;;;;;;;;;;24.20;35.00;;;;;;1553336;76;645;-66
2022/03/08 11:09:10;;;;;;;;;;;24.20;35.00;;;;;;1564109;76;1170;-66
2022/03/08 11:11:12;;;;;;;;;;;24.20;35.10;;;;;;1567253;76;706;-65
2022/03/08 11:13:15;;;;;;;;;;;24.20;35.00;;;;;;1553543;76;761;-65
2022/03/08 11:15:17;;;;;;;;;;;24.20;35.10;;;;;;1553229;76;1941;-66
2022/03/08 11:17:19;;;;;;;;;;;24.20;35.10;;;;;;1553480;76;682;-65
2022/03/08 11:19:26;;;;;;;;;;;24.20;35.10;;;;;;1553455;76;1128;-65
2022/03/08 11:21:26;;;;;;;;;;;24.20;35.10;;;;;;1552575;76;1661;-66
2022/03/08 11:23:28;;;;;;;;;;;24.20;35.20;;;;;;1563383;76;820;-65
2022/03/08 11:25:31;;;;;;;;;;;24.30;35.20;;;;;;1552873;76;726;-65
2022/03/08 11:27:34;;;;;;;;;;;24.20;35.10;;;;;;1542485;76;853;-65
2022/03/08 11:29:36;;;;;;;;;;;24.20;35.20;;;;;;1542941;76;1147;-65
2022/03/08 11:31:38;;;;;;;;;;;24.20;35.10;;;;;;1541517;76;699;-66
2022/03/08 11:33:59;;;;;;;;;;;24.20;35.20;;;;;;1546588;76;781;-66
2022/03/08 11:36:03;;;;;;;;;;;24.30;35.20;;;;;;1553209;76;1901;-67
2022/03/08 11:38:05;;;;;;;;;;;24.30;35.20;;;;;;1559266;76;701;-66
2022/03/08 11:40:10;;;;;;;;;;;24.30;35.20;;;;;;1549190;76;1101;-66
2022/03/08 11:42:20;;;;;;;;;;;24.30;35.20;;;;;;1542813;76;726;-65
2022/03/08 11:44:29;;;;;;;;;;;24.30;35.20;;;;;;1541495;76;719;-66
2022/03/08 11:46:31;;;;;;;;;;;24.30;35.20;;;;;;1543726;77;810;-65
2022/03/08 11:48:33;;;;;;;;;;;24.30;35.10;;;;;;1544235;77;1201;-66
2022/03/08 11:50:36;;;;;;;;;;;24.40;35.20;;;;;;1544304;76;774;-66
2022/03/08 11:52:39;;;;;;;;;;;24.40;35.10;;;;;;1543899;76;691;-66
2022/03/08 11:54:41;;;;;;;;;;;24.30;35.10;;;;;;1551996;76;708;-66
2022/03/08 11:56:46;;;;;;;;;;;24.40;35.00;;;;;;1541476;77;1933;-68
2022/03/08 11:58:49;;;;;;;;;;;24.40;35.00;;;;;;1541241;77;1120;-66
2022/03/08 12:00:52;;;;;;;;;;;24.40;35.00;;;;;;1541497;76;802;-66
2022/03/08 12:02:55;;;;;;;;;;;24.40;35.00;;;;;;1546136;76;759;-65
2022/03/08 12:04:57;;;;;;;;;;;24.40;35.00;;;;;;1541473;77;715;-67
2022/03/08 12:07:00;;;;;;;;;;;24.40;34.90;;;;;;1541340;77;650;-66
2022/03/08 12:09:12;;;;;;;;;;;24.50;35.00;;;;;;1553376;76;1182;-66